Time;durP1;ratioP1;P1;durP2;ratioP2;P2;SDS_P1;SDS_P2;PMS_P1;PMS_P2;Temp;Humidity;BMP_temperature;BMP_pressure;BME280_temperature;BME280_humidity;BME280_pressure;Samples;Min_cycle;Max_cycle;Signal;HPM_P1;HPM_P2
2022/05/05 00:02:05;;;;;;;4.80;3.30;;;14.00;75.00;;;;;;5019620;28;20033;-74
2022/05/05 00:04:31;;;;;;;3.53;3.22;;;14.00;75.10;;;;;;5017922;28;20119;-73
2022/05/05 00:06:56;;;;;;;4.47;3.40;;;14.00;75.10;;;;;;5005010;28;20095;-72
2022/05/05 00:09:22;;;;;;;4.25;3.85;;;13.90;74.90;;;;;;5003174;28;20717;-73
2022/05/05 00:14:32;;;;;;;3.65;3.35;;;13.90;75.30;;;;;;5023269;28;20043;-73
2022/05/05 00:17:01;;;;;;;4.18;3.80;;;13.90;75.30;;;;;;5006777;28;20124;-73
2022/05/05 00:19:28;;;;;;;3.42;3.13;;;13.90;75.50;;;;;;5008304;28;20474;-73
2022/05/05 00:21:54;;;;;;;5.90;4.75;;;13.90;75.60;;;;;;5018864;28;20041;-73
2022/05/05 00:24:19;;;;;;;6.35;4.07;;;13.80;75.60;;;;;;4991490;28;20037;-74
2022/05/05 00:26:45;;;;;;;4.15;3.67;;;13.80;75.80;;;;;;4978431;28;20046;-73
2022/05/05 00:29:11;;;;;;;6.65;3.75;;;13.80;76.00;;;;;;5007229;28;20048;-73
2022/05/05 00:31:36;;;;;;;3.88;3.33;;;13.80;76.00;;;;;;5032356;28;20083;-73
2022/05/05 00:34:02;;;;;;;4.65;3.80;;;13.70;76.00;;;;;;5013815;28;20121;-73
2022/05/05 00:36:27;;;;;;;6.10;4.22;;;13.70;76.10;;;;;;5007470;28;20036;-73
2022/05/05 00:38:53;;;;;;;4.28;3.88;;;13.70;76.20;;;;;;5015973;28;20128;-73
2022/05/05 00:41:18;;;;;;;5.40;3.97;;;13.70;76.30;;;;;;5016840;28;20042;-72
2022/05/05 00:43:44;;;;;;;4.70;3.88;;;13.60;76.20;;;;;;5009118;28;20132;-73
2022/05/05 00:46:09;;;;;;;9.25;4.97;;;13.60;76.40;;;;;;5016318;28;20037;-73
2022/05/05 00:48:35;;;;;;;4.22;3.83;;;13.50;76.30;;;;;;4995298;28;20070;-72
2022/05/05 00:51:00;;;;;;;6.43;3.58;;;13.50;76.30;;;;;;5033061;28;20058;-74
2022/05/05 00:53:26;;;;;;;6.03;4.35;;;13.50;76.30;;;;;;5022369;28;20041;-73
2022/05/05 00:55:56;;;;;;;6.18;3.92;;;13.50;76.40;;;;;;5015248;28;20029;-73
2022/05/05 00:58:23;;;;;;;5.78;4.22;;;13.50;76.50;;;;;;5001293;28;20026;-72
2022/05/05 01:00:48;;;;;;;5.70;3.72;;;13.40;76.40;;;;;;4994704;28;20037;-73
2022/05/05 01:03:14;;;;;;;6.47;3.65;;;13.40;76.60;;;;;;5016613;28;20041;-74
2022/05/05 01:05:39;;;;;;;9.23;3.95;;;13.30;76.40;;;;;;5020016;28;20065;-72
2022/05/05 01:08:05;;;;;;;4.78;4.28;;;13.30;76.40;;;;;;5025517;28;20058;-72
2022/05/05 01:10:31;;;;;;;6.93;4.10;;;13.30;76.60;;;;;;5026248;28;20037;-73
2022/05/05 01:12:56;;;;;;;4.72;4.22;;;13.30;76.60;;;;;;5003194;28;20026;-73
2022/05/05 01:15:22;;;;;;;5.18;4.43;;;13.20;76.60;;;;;;5009678;28;20075;-72
2022/05/05 01:17:48;;;;;;;5.03;3.70;;;13.20;76.60;;;;;;5018418;28;20113;-75
2022/05/05 01:20:16;;;;;;;5.55;3.65;;;13.20;76.70;;;;;;5003316;28;20116;-72
2022/05/05 01:22:42;;;;;;;5.68;3.95;;;13.10;76.70;;;;;;5012864;28;20504;-74
2022/05/05 01:30:36;;;;;;;4.53;4.13;;;13.00;76.90;;;;;;4989203;28;20048;-73
2022/05/05 01:33:09;;;;;;;4.50;3.85;;;13.00;76.90;;;;;;5005829;28;20041;-72
2022/05/05 01:35:35;;;;;;;4.60;4.10;;;13.00;77.20;;;;;;5017988;28;20037;-73
2022/05/05 01:38:00;;;;;;;4.60;4.10;;;12.90;77.00;;;;;;4995027;28;20397;-73
2022/05/05 01:40:26;;;;;;;6.25;4.03;;;12.90;77.10;;;;;;5014549;28;20482;-73
2022/05/05 01:42:51;;;;;;;4.47;4.07;;;12.90;77.20;;;;;;5011745;28;20037;-73
2022/05/05 01:45:17;;;;;;;4.95;4.47;;;12.90;77.20;;;;;;4999163;28;20041;-73
2022/05/05 01:47:42;;;;;;;4.45;3.83;;;12.80;77.20;;;;;;5015944;28;20033;-73
2022/05/05 01:50:09;;;;;;;4.43;3.90;;;12.80;77.30;;;;;;5010560;28;20708;-73
2022/05/05 01:52:35;;;;;;;7.00;4.47;;;12.70;77.20;;;;;;5007774;28;20104;-73
2022/05/05 01:55:00;;;;;;;5.13;3.80;;;12.70;77.30;;;;;;5026937;28;20033;-72
2022/05/05 01:57:26;;;;;;;4.28;3.72;;;12.70;77.40;;;;;;5018405;28;20048;-73
2022/05/05 01:59:51;;;;;;;4.60;4.20;;;12.70;77.40;;;;;;4991830;28;20068;-72
2022/05/05 02:02:17;;;;;;;4.22;3.83;;;12.60;77.40;;;;;;4986526;28;20061;-73
2022/05/05 02:04:42;;;;;;;5.40;4.18;;;12.60;77.50;;;;;;5018023;28;20099;-73
2022/05/05 02:07:08;;;;;;;5.35;4.13;;;12.60;77.50;;;;;;5006531;28;20053;-73
2022/05/05 02:09:33;;;;;;;4.32;3.92;;;12.50;77.50;;;;;;5013573;28;20153;-74
2022/05/05 02:11:59;;;;;;;6.70;4.60;;;12.50;77.60;;;;;;5007116;28;20037;-73
2022/05/05 02:14:24;;;;;;;5.10;4.30;;;12.50;77.70;;;;;;4956539;28;20037;-72
2022/05/05 02:16:50;;;;;;;4.30;3.90;;;12.40;77.70;;;;;;5019277;28;20091;-73
2022/05/05 02:19:16;;;;;;;4.88;4.18;;;12.40;77.60;;;;;;5013829;28;20038;-72
2022/05/05 02:21:42;;;;;;;4.40;4.00;;;12.30;77.70;;;;;;5010616;28;20088;-73
2022/05/05 02:24:07;;;;;;;8.32;4.20;;;12.40;77.80;;;;;;5015312;28;20579;-73
2022/05/05 02:26:33;;;;;;;5.30;4.38;;;12.30;77.90;;;;;;5017433;28;20076;-73
2022/05/05 02:28:58;;;;;;;6.38;4.20;;;12.30;78.00;;;;;;4988850;28;20421;-72
2022/05/05 02:31:24;;;;;;;6.10;4.10;;;12.30;78.00;;;;;;4993951;28;20103;-72
2022/05/05 02:33:49;;;;;;;5.32;4.03;;;12.30;78.10;;;;;;5014611;28;20030;-72
2022/05/05 02:38:59;;;;;;;4.50;4.00;;;12.20;78.10;;;;;;5012529;28;20051;-73
2022/05/05 02:41:25;;;;;;;4.72;4.03;;;12.20;78.10;;;;;;5008341;28;20473;-72
2022/05/05 02:43:50;;;;;;;4.97;4.47;;;12.20;78.10;;;;;;5001536;28;20025;-72
2022/05/05 02:46:16;;;;;;;7.50;5.72;;;12.10;78.30;;;;;;5029881;28;20041;-72
2022/05/05 02:48:41;;;;;;;6.18;4.57;;;12.10;78.30;;;;;;4997378;28;20046;-72
2022/05/05 02:51:07;;;;;;;6.15;4.32;;;12.10;78.30;;;;;;5013995;28;20099;-73
2022/05/05 02:56:17;;;;;;;4.35;3.95;;;12.10;78.40;;;;;;5035670;28;20043;-72
2022/05/05 02:58:43;;;;;;;5.40;4.65;;;12.00;78.40;;;;;;5025820;28;20040;-73
2022/05/05 03:01:09;;;;;;;7.80;4.13;;;12.00;78.50;;;;;;5032581;28;20086;-74
2022/05/05 03:03:35;;;;;;;5.40;4.20;;;12.00;78.50;;;;;;5049290;28;20036;-73
2022/05/05 03:06:00;;;;;;;7.20;4.72;;;12.00;78.50;;;;;;5024652;28;20033;-72
2022/05/05 03:08:26;;;;;;;6.53;4.00;;;12.00;78.70;;;;;;5033421;28;20028;-72
2022/05/05 03:10:52;;;;;;;7.75;4.60;;;12.00;78.60;;;;;;5021675;28;20029;-73
2022/05/05 03:13:17;;;;;;;7.22;3.97;;;12.00;78.70;;;;;;5054132;28;22722;-73
2022/05/05 03:15:44;;;;;;;4.88;4.40;;;12.00;78.70;;;;;;5041257;28;20032;-73
2022/05/05 03:18:10;;;;;;;4.85;4.25;;;12.00;78.80;;;;;;5037145;28;20021;-72
2022/05/05 03:20:35;;;;;;;6.20;3.72;;;11.90;78.70;;;;;;5036036;28;20051;-73
2022/05/05 03:23:01;;;;;;;6.63;4.45;;;11.90;78.80;;;;;;5012751;28;20033;-72
2022/05/05 03:25:26;;;;;;;4.40;3.80;;;11.90;78.90;;;;;;5012131;28;20031;-73
2022/05/05 03:27:52;;;;;;;4.53;4.13;;;11.90;78.90;;;;;;5038724;28;20037;-72
2022/05/05 03:30:17;;;;;;;4.80;4.28;;;11.90;78.90;;;;;;5035649;28;20040;-72
2022/05/05 03:32:43;;;;;;;4.95;4.20;;;11.90;78.90;;;;;;5042662;28;20033;-72
2022/05/05 03:35:09;;;;;;;4.95;4.43;;;11.90;79.00;;;;;;5020928;28;20143;-74
2022/05/05 03:37:35;;;;;;;8.18;4.28;;;11.90;79.10;;;;;;5032088;28;20135;-73
2022/05/05 03:40:00;;;;;;;4.60;4.18;;;11.90;79.10;;;;;;5045476;28;20043;-72
2022/05/05 03:42:26;;;;;;;5.25;4.15;;;11.80;79.10;;;;;;5050797;28;20163;-73
2022/05/05 03:44:51;;;;;;;4.50;4.10;;;11.80;79.10;;;;;;5035998;28;20573;-72
2022/05/05 03:47:17;;;;;;;4.70;4.22;;;11.80;79.20;;;;;;5030510;28;20661;-73
2022/05/05 03:49:42;;;;;;;4.97;3.72;;;11.80;79.20;;;;;;5040309;28;20072;-72
2022/05/05 03:52:08;;;;;;;3.95;3.55;;;11.80;79.30;;;;;;5033777;28;20104;-73
2022/05/05 03:54:34;;;;;;;5.15;3.90;;;11.80;79.40;;;;;;5039252;28;20392;-73
2022/05/05 03:56:59;;;;;;;4.72;3.70;;;11.80;79.40;;;;;;5037131;28;20037;-74
2022/05/05 03:59:25;;;;;;;4.05;3.65;;;11.80;79.40;;;;;;5042072;28;20502;-73
2022/05/05 04:01:50;;;;;;;4.30;3.90;;;11.70;79.40;;;;;;5043425;28;20029;-72
2022/05/05 04:04:17;;;;;;;6.65;4.38;;;11.80;79.50;;;;;;5030019;28;20735;-73
2022/05/05 04:06:42;;;;;;;4.32;3.92;;;11.70;79.40;;;;;;5032719;28;20057;-73
2022/05/05 04:09:10;;;;;;;4.50;4.10;;;11.70;79.70;;;;;;5040533;28;20570;-74
2022/05/05 04:11:35;;;;;;;4.45;4.05;;;11.70;79.70;;;;;;5026805;28;20088;-73
2022/05/05 04:14:02;;;;;;;7.22;4.60;;;11.70;79.60;;;;;;5006383;28;20034;-73
2022/05/05 04:16:28;;;;;;;4.70;3.80;;;11.80;79.70;;;;;;5016307;28;20549;-73
2022/05/05 04:18:54;;;;;;;5.35;4.50;;;11.70;79.70;;;;;;5003347;28;20042;-73
2022/05/05 04:21:19;;;;;;;4.80;3.97;;;11.70;79.70;;;;;;5010079;28;20152;-73
2022/05/05 04:23:45;;;;;;;4.70;4.03;;;11.70;79.90;;;;;;5019190;28;20033;-72
2022/05/05 04:26:11;;;;;;;3.83;3.40;;;11.70;79.90;;;;;;5008678;28;20044;-72
2022/05/05 04:28:36;;;;;;;4.10;3.58;;;11.70;80.00;;;;;;5015310;28;20049;-72
2022/05/05 04:31:02;;;;;;;4.80;4.25;;;11.70;80.00;;;;;;4988051;28;20026;-72
2022/05/05 04:33:28;;;;;;;4.22;3.83;;;11.70;80.00;;;;;;5014822;28;20030;-73
2022/05/05 04:35:54;;;;;;;5.22;3.65;;;11.70;80.10;;;;;;5014333;28;20029;-72
2022/05/05 04:38:19;;;;;;;3.95;3.50;;;11.70;80.10;;;;;;4974203;28;20042;-73
2022/05/05 04:40:45;;;;;;;4.18;3.78;;;11.80;80.20;;;;;;5008181;28;20079;-73
2022/05/05 04:43:10;;;;;;;7.28;3.72;;;11.80;80.10;;;;;;4983999;28;20037;-73
2022/05/05 04:45:36;;;;;;;4.55;3.85;;;11.80;80.10;;;;;;5019486;28;20509;-72
2022/05/05 04:48:01;;;;;;;5.05;4.35;;;11.80;80.20;;;;;;5012770;28;20129;-72
2022/05/05 04:50:27;;;;;;;4.47;3.80;;;11.80;80.20;;;;;;5016643;28;20047;-72
2022/05/05 04:52:52;;;;;;;6.82;4.88;;;11.80;80.20;;;;;;5018489;28;20635;-73
2022/05/05 04:55:18;;;;;;;6.68;5.20;;;11.80;80.10;;;;;;4995490;28;20087;-72
2022/05/05 04:57:43;;;;;;;6.13;5.28;;;11.80;80.30;;;;;;5019554;28;20041;-72
2022/05/05 05:00:09;;;;;;;7.93;5.03;;;11.90;80.40;;;;;;4994542;28;20041;-73
2022/05/05 05:02:35;;;;;;;6.05;5.45;;;11.90;80.50;;;;;;5019725;28;20087;-73
2022/05/05 05:05:01;;;;;;;6.10;5.50;;;11.90;80.60;;;;;;5015124;28;20037;-72
2022/05/05 05:07:26;;;;;;;12.88;5.53;;;11.90;80.60;;;;;;5013343;28;20049;-72
2022/05/05 05:09:52;;;;;;;6.18;4.88;;;11.90;80.60;;;;;;5020386;28;20045;-73
2022/05/05 05:12:17;;;;;;;5.88;5.22;;;11.90;80.70;;;;;;5031938;28;20510;-72
2022/05/05 05:14:43;;;;;;;6.70;4.85;;;11.90;80.70;;;;;;5006371;28;20041;-73
2022/05/05 05:17:09;;;;;;;5.18;4.50;;;12.00;80.70;;;;;;5017027;28;20068;-73
2022/05/05 05:19:34;;;;;;;8.75;6.68;;;12.00;80.70;;;;;;5021272;28;20040;-73
2022/05/05 05:22:00;;;;;;;8.02;5.90;;;12.00;80.80;;;;;;4999101;28;20040;-73
2022/05/05 05:24:25;;;;;;;6.90;5.15;;;12.00;80.60;;;;;;5015354;28;20036;-73
2022/05/05 05:26:51;;;;;;;7.15;5.82;;;12.00;80.60;;;;;;5016753;28;20030;-73
2022/05/05 05:29:16;;;;;;;5.45;4.80;;;12.00;80.60;;;;;;5009038;28;20041;-73
2022/05/05 05:31:42;;;;;;;7.00;5.65;;;12.10;80.60;;;;;;5018534;28;20102;-73
2022/05/05 05:34:07;;;;;;;7.03;6.22;;;12.10;80.50;;;;;;5014059;28;20118;-73
2022/05/05 05:36:33;;;;;;;6.40;5.43;;;12.10;80.70;;;;;;5009863;28;20086;-73
2022/05/05 05:38:58;;;;;;;7.80;5.68;;;12.10;80.70;;;;;;5017623;28;20026;-72
2022/05/05 05:41:24;;;;;;;5.63;5.05;;;12.20;80.80;;;;;;5019538;28;20037;-73
2022/05/05 05:43:49;;;;;;;9.40;6.30;;;12.20;80.80;;;;;;5003206;28;20436;-73
2022/05/05 05:46:15;;;;;;;7.57;6.55;;;12.20;80.80;;;;;;5013797;28;20060;-72
2022/05/05 05:48:40;;;;;;;7.90;5.82;;;12.20;80.80;;;;;;5017329;28;20037;-72
2022/05/05 05:51:06;;;;;;;7.78;6.35;;;12.30;81.00;;;;;;4997314;28;20025;-73
2022/05/05 05:53:32;;;;;;;11.90;6.63;;;12.30;80.90;;;;;;5021425;28;20520;-73
2022/05/05 05:55:57;;;;;;;8.00;5.80;;;12.30;80.90;;;;;;4998495;28;20034;-73
2022/05/05 05:58:23;;;;;;;8.25;6.70;;;12.40;81.00;;;;;;5017164;28;20030;-72
2022/05/05 06:00:48;;;;;;;9.82;6.88;;;12.40;80.80;;;;;;5009826;28;20090;-72
2022/05/05 06:05:59;;;;;;;11.75;9.90;;;12.50;80.90;;;;;;5013559;28;20045;-72
2022/05/05 06:08:24;;;;;;;12.93;8.30;;;12.60;81.10;;;;;;5008808;28;20604;-73
2022/05/05 06:10:50;;;;;;;9.93;7.20;;;12.60;81.30;;;;;;5011404;28;20033;-72
2022/05/05 06:13:15;;;;;;;10.65;8.50;;;12.70;81.20;;;;;;5017818;28;20034;-72
2022/05/05 06:15:41;;;;;;;8.27;7.32;;;12.70;81.20;;;;;;5008961;28;20109;-73
2022/05/05 06:18:07;;;;;;;10.27;8.23;;;12.70;81.20;;;;;;5013677;28;20025;-72
2022/05/05 06:20:35;;;;;;;12.07;9.55;;;12.80;81.20;;;;;;4996804;28;20117;-72
2022/05/05 06:23:01;;;;;;;15.65;12.05;;;12.80;81.40;;;;;;4999934;28;20434;-72
2022/05/05 06:25:26;;;;;;;14.40;11.05;;;12.80;81.60;;;;;;5017327;28;20034;-72
2022/05/05 06:27:52;;;;;;;21.60;13.57;;;12.90;81.80;;;;;;4997484;28;20037;-73
2022/05/05 06:30:17;;;;;;;18.35;12.63;;;12.90;81.90;;;;;;4995345;28;20406;-72
2022/05/05 06:32:44;;;;;;;18.40;12.73;;;13.00;82.00;;;;;;5001481;28;20597;-73
2022/05/05 06:35:10;;;;;;;16.30;11.57;;;13.10;82.10;;;;;;4980777;28;20053;-72
2022/05/05 06:37:36;;;;;;;20.45;13.85;;;13.10;82.00;;;;;;4979794;28;20086;-73
2022/05/05 06:40:02;;;;;;;16.98;13.13;;;13.20;82.00;;;;;;5016945;28;20034;-73
2022/05/05 06:42:28;;;;;;;21.52;16.10;;;13.30;82.00;;;;;;5015805;28;20171;-73
2022/05/05 06:44:53;;;;;;;22.27;16.35;;;13.40;82.10;;;;;;4993051;28;20045;-72
2022/05/05 06:47:19;;;;;;;18.48;13.80;;;13.50;82.10;;;;;;5015661;28;20050;-73
2022/05/05 06:49:45;;;;;;;19.42;14.10;;;13.50;82.00;;;;;;5017839;28;20058;-73
2022/05/05 06:52:11;;;;;;;19.13;13.68;;;13.60;82.10;;;;;;5014897;28;20068;-73
2022/05/05 06:54:36;;;;;;;20.60;14.63;;;13.70;82.00;;;;;;5007337;28;20046;-73
2022/05/05 06:57:02;;;;;;;18.67;13.98;;;13.80;81.90;;;;;;5000898;28;20026;-73
2022/05/05 06:59:28;;;;;;;17.77;12.98;;;13.90;81.90;;;;;;4980140;28;20026;-72
2022/05/05 07:01:53;;;;;;;16.13;12.48;;;14.00;81.90;;;;;;5008231;28;20038;-72
2022/05/05 07:07:06;;;;;;;12.95;10.10;;;14.10;81.70;;;;;;5016914;28;20091;-73
2022/05/05 07:12:17;;;;;;;11.85;9.75;;;14.20;81.40;;;;;;4999346;28;20048;-73
2022/05/05 07:14:45;;;;;;;12.45;8.60;;;14.30;81.30;;;;;;4987660;28;20410;-73
2022/05/05 07:17:13;;;;;;;10.32;8.40;;;14.30;81.20;;;;;;4996221;28;20087;-73
2022/05/05 07:19:39;;;;;;;8.45;7.55;;;14.40;81.10;;;;;;5004871;28;20387;-74
2022/05/05 07:22:05;;;;;;;9.75;8.30;;;14.50;80.90;;;;;;5014148;28;20117;-73
2022/05/05 07:24:30;;;;;;;9.48;7.20;;;14.50;80.80;;;;;;5013403;28;20049;-73
2022/05/05 07:26:56;;;;;;;11.38;8.35;;;14.60;80.70;;;;;;4988396;28;20060;-73
2022/05/05 07:29:22;;;;;;;10.05;7.53;;;14.70;80.50;;;;;;5012895;28;20073;-73
2022/05/05 07:31:48;;;;;;;9.07;6.72;;;14.70;80.50;;;;;;5021065;28;20514;-73
2022/05/05 07:34:13;;;;;;;9.10;7.68;;;14.80;80.50;;;;;;5019072;28;20040;-73
2022/05/05 07:36:39;;;;;;;10.25;7.88;;;14.90;80.20;;;;;;4993912;28;20438;-73
2022/05/05 07:39:04;;;;;;;9.77;8.50;;;15.10;80.10;;;;;;5003549;28;20487;-73
2022/05/05 07:41:30;;;;;;;10.70;8.57;;;15.20;80.00;;;;;;5017133;28;20061;-73
2022/05/05 07:43:56;;;;;;;11.25;8.70;;;15.30;79.70;;;;;;5017586;28;20109;-73
2022/05/05 07:46:23;;;;;;;10.48;7.18;;;15.40;79.60;;;;;;5020165;28;20240;-74
2022/05/05 07:48:49;;;;;;;8.38;7.47;;;15.50;79.50;;;;;;5022295;28;20059;-73
2022/05/05 07:51:14;;;;;;;7.78;6.68;;;15.70;79.40;;;;;;5011274;28;20085;-73
2022/05/05 07:53:40;;;;;;;8.80;6.53;;;15.90;79.20;;;;;;4998715;28;20134;-73
2022/05/05 07:56:05;;;;;;;7.60;6.53;;;16.00;78.80;;;;;;4998103;28;20405;-73
2022/05/05 07:58:31;;;;;;;7.57;6.03;;;16.20;78.60;;;;;;4998254;28;20306;-74
2022/05/05 08:00:56;;;;;;;6.65;5.63;;;16.30;78.40;;;;;;5005956;28;20177;-74
2022/05/05 08:03:22;;;;;;;7.28;5.88;;;16.50;78.20;;;;;;4990522;28;20037;-73
2022/05/05 08:05:48;;;;;;;6.22;5.10;;;16.70;77.90;;;;;;5016983;28;20151;-74
2022/05/05 08:08:13;;;;;;;6.43;5.82;;;16.90;77.50;;;;;;4979295;28;20108;-73
2022/05/05 08:10:39;;;;;;;6.82;6.00;;;17.10;77.20;;;;;;5020383;28;20072;-73
2022/05/05 08:13:04;;;;;;;5.60;4.97;;;17.30;76.70;;;;;;4994574;28;20544;-74
2022/05/05 08:15:30;;;;;;;9.07;6.22;;;17.40;76.30;;;;;;5027007;28;20536;-73
2022/05/05 08:17:56;;;;;;;9.50;6.22;;;17.60;76.00;;;;;;5003682;28;20132;-74
2022/05/05 08:20:21;;;;;;;8.45;5.38;;;17.70;75.30;;;;;;5001072;28;20034;-74
2022/05/05 08:22:47;;;;;;;11.57;5.97;;;17.90;74.90;;;;;;5012156;28;20036;-73
2022/05/05 08:30:41;;;;;;;8.52;6.13;;;18.30;73.80;;;;;;5017128;28;20119;-73
2022/05/05 08:33:07;;;;;;;10.68;5.32;;;18.50;73.40;;;;;;5024042;28;20037;-73
2022/05/05 08:35:33;;;;;;;8.82;5.35;;;18.70;73.10;;;;;;5038076;28;20617;-73
2022/05/05 08:37:58;;;;;;;8.07;5.65;;;18.90;72.60;;;;;;5019515;28;20032;-73
2022/05/05 08:40:25;;;;;;;6.78;5.32;;;19.00;71.90;;;;;;5039647;28;20450;-73
2022/05/05 08:42:51;;;;;;;7.68;4.60;;;19.20;71.30;;;;;;5025166;28;20030;-73
2022/05/05 08:45:16;;;;;;;7.93;5.22;;;19.30;70.90;;;;;;5025211;28;20039;-73
2022/05/05 08:47:42;;;;;;;5.78;4.20;;;19.50;70.40;;;;;;5042316;28;20037;-73
2022/05/05 08:50:11;;;;;;;7.90;4.53;;;19.60;69.90;;;;;;5016411;28;20084;-73
2022/05/05 08:52:46;;;;;;;7.22;5.00;;;19.70;69.60;;;;;;5011994;28;20127;-74
2022/05/05 08:55:15;;;;;;;6.07;4.97;;;19.80;68.70;;;;;;5008338;28;20041;-74
2022/05/05 08:57:41;;;;;;;5.95;4.03;;;19.90;68.40;;;;;;5020511;28;20098;-74
2022/05/05 09:00:08;;;;;;;6.75;4.18;;;20.00;68.00;;;;;;5010770;28;20057;-73
2022/05/05 09:02:33;;;;;;;8.52;4.22;;;20.10;67.60;;;;;;5021255;28;20052;-73
2022/05/05 09:04:59;;;;;;;8.38;5.57;;;20.30;67.20;;;;;;5025717;28;20029;-74
2022/05/05 09:07:47;;;;;;;8.98;5.28;;;20.50;66.90;;;;;;5007888;28;20034;-73
2022/05/05 09:10:14;;;;;;;10.60;4.75;;;20.60;65.30;;;;;;4988582;28;20119;-73
2022/05/05 09:12:39;;;;;;;9.57;5.20;;;20.70;65.70;;;;;;5006373;28;20120;-75
2022/05/05 09:15:11;;;;;;;6.55;5.38;;;20.80;64.90;;;;;;5016215;28;20041;-74
2022/05/05 09:17:36;;;;;;;9.45;4.75;;;21.00;64.20;;;;;;5004137;28;20052;-75
2022/05/05 09:20:03;;;;;;;8.50;5.13;;;21.10;64.10;;;;;;5023395;28;21052;-74
2022/05/05 09:22:29;;;;;;;9.20;6.35;;;21.30;63.90;;;;;;5016090;28;20034;-73
2022/05/05 09:25:01;;;;;;;9.45;6.60;;;21.40;63.20;;;;;;4998981;28;20033;-73
2022/05/05 09:27:31;;;;;;;8.27;5.60;;;21.50;62.70;;;;;;5024423;28;20037;-74
2022/05/05 09:30:02;;;;;;;11.60;6.70;;;21.50;62.00;;;;;;5018027;28;20063;-74
2022/05/05 09:32:29;;;;;;;9.80;5.65;;;21.60;61.40;;;;;;5018209;28;20053;-73
2022/05/05 09:34:58;;;;;;;9.48;6.80;;;21.60;61.10;;;;;;5021376;28;20044;-73
2022/05/05 09:37:24;;;;;;;10.60;6.60;;;21.70;60.50;;;;;;5004314;28;20095;-73
2022/05/05 09:39:59;;;;;;;7.35;5.97;;;21.70;60.00;;;;;;5009035;28;20037;-74
2022/05/05 09:42:41;;;;;;;9.88;6.03;;;21.80;59.10;;;;;;5023104;28;20648;-74
2022/05/05 09:45:29;;;;;;;9.10;6.20;;;21.90;58.70;;;;;;5007779;28;20445;-73
2022/05/05 09:48:01;;;;;;;6.90;5.38;;;22.00;58.00;;;;;;5024797;28;20079;-74
2022/05/05 09:50:28;;;;;;;8.73;5.45;;;22.10;58.30;;;;;;5027127;28;20046;-74
2022/05/05 09:58:26;;;;;;;10.77;6.82;;;22.30;57.80;;;;;;5032364;28;20071;-74
2022/05/05 10:00:59;;;;;;;12.65;6.72;;;22.40;57.30;;;;;;5042566;28;20048;-74
2022/05/05 10:06:25;;;;;;;8.13;5.45;;;22.50;56.30;;;;;;5045322;28;20035;-75
2022/05/05 10:08:51;;;;;;;7.53;4.72;;;22.50;56.30;;;;;;5026616;28;20595;-74
2022/05/05 10:11:19;;;;;;;11.85;5.90;;;22.60;56.20;;;;;;5050874;28;20025;-74
2022/05/05 10:13:45;;;;;;;9.70;5.43;;;22.60;56.10;;;;;;5051660;28;20084;-74
2022/05/05 10:16:11;;;;;;;7.70;5.43;;;22.70;55.90;;;;;;5051391;28;20026;-74
2022/05/05 10:18:38;;;;;;;8.13;6.07;;;22.80;55.70;;;;;;5031963;28;20055;-74
2022/05/05 10:21:07;;;;;;;9.15;5.68;;;22.90;55.40;;;;;;5035723;28;20089;-74
2022/05/05 10:23:58;;;;;;;6.03;5.15;;;22.90;54.80;;;;;;5054642;28;20669;-73
2022/05/05 12:39:12;;;;;;;8.07;3.50;;;26.10;54.00;;;;;;5017703;28;20174;-73
2022/05/05 12:41:37;;;;;;;7.18;3.60;;;26.10;54.00;;;;;;5034938;28;20034;-73
2022/05/05 12:44:09;;;;;;;8.02;4.03;;;26.10;53.00;;;;;;4983299;28;20093;-74
2022/05/05 12:46:35;;;;;;;4.97;3.95;;;26.20;52.20;;;;;;4991522;28;20036;-74
2022/05/05 12:49:00;;;;;;;8.30;3.25;;;26.30;51.70;;;;;;5003183;28;20117;-73
2022/05/05 13:14:32;;;;;;;6.30;3.28;;;27.30;50.90;;;;;;5036174;28;20173;-73
2022/05/05 13:16:58;;;;;;;5.30;3.92;;;27.20;51.00;;;;;;5018018;28;20033;-73
2022/05/05 13:19:25;;;;;;;7.90;3.45;;;27.30;50.30;;;;;;5003855;28;20037;-73
2022/05/05 13:21:51;;;;;;;7.93;4.28;;;27.40;49.80;;;;;;5037522;28;20049;-73
2022/05/05 13:24:16;;;;;;;3.95;3.17;;;27.50;49.10;;;;;;5028963;28;20587;-74
2022/05/05 13:26:43;;;;;;;8.77;3.08;;;27.50;48.50;;;;;;5025742;28;20498;-73
2022/05/05 13:29:09;;;;;;;5.70;3.50;;;27.60;48.10;;;;;;5026744;28;20670;-73
2022/05/05 13:31:35;;;;;;;4.53;3.03;;;27.70;47.80;;;;;;5025281;28;20036;-75
2022/05/05 13:34:00;;;;;;;5.72;3.05;;;27.70;47.50;;;;;;5016828;28;20091;-73
2022/05/05 13:36:26;;;;;;;5.05;3.30;;;27.70;47.10;;;;;;5023894;28;20097;-74
2022/05/05 13:38:52;;;;;;;4.50;3.70;;;27.80;47.10;;;;;;5044181;28;20095;-74
2022/05/05 13:41:17;;;;;;;9.02;3.55;;;27.80;46.70;;;;;;5032118;28;20048;-74
2022/05/05 13:43:43;;;;;;;6.07;3.33;;;27.90;46.50;;;;;;5002044;28;20049;-73
2022/05/05 13:46:09;;;;;;;7.10;3.70;;;27.80;46.00;;;;;;5040911;28;20106;-74
2022/05/05 13:48:36;;;;;;;6.22;3.50;;;27.80;45.70;;;;;;5031828;28;20810;-75
2022/05/05 13:51:03;;;;;;;5.70;3.80;;;27.70;45.40;;;;;;5004741;28;20041;-74
2022/05/05 13:53:29;;;;;;;5.60;3.22;;;27.70;45.50;;;;;;5016269;28;20154;-73
2022/05/05 13:55:55;;;;;;;4.25;3.00;;;27.60;45.10;;;;;;5019206;28;20080;-73
2022/05/05 13:58:20;;;;;;;8.48;3.40;;;27.50;45.20;;;;;;5014237;28;20049;-76
2022/05/05 14:00:46;;;;;;;5.25;2.90;;;27.50;45.10;;;;;;4997004;28;20064;-73
2022/05/05 14:03:12;;;;;;;5.55;3.88;;;27.50;45.10;;;;;;5004627;28;20087;-74
2022/05/05 14:05:37;;;;;;;5.95;3.42;;;27.40;45.00;;;;;;4999921;28;20053;-72
2022/05/05 14:13:31;;;;;;;8.55;3.42;;;27.40;44.80;;;;;;5025788;28;20040;-72
2022/05/05 14:15:57;;;;;;;5.35;3.50;;;27.30;44.90;;;;;;5017615;28;20124;-72
2022/05/05 14:18:24;;;;;;;4.40;3.33;;;27.30;44.70;;;;;;5008517;28;20032;-73
2022/05/05 14:20:49;;;;;;;6.93;3.67;;;27.20;44.60;;;;;;5012404;28;20039;-73
2022/05/05 14:23:15;;;;;;;4.90;2.85;;;27.00;44.40;;;;;;5010884;28;20410;-73
2022/05/05 14:25:40;;;;;;;3.80;2.63;;;26.90;44.50;;;;;;5008227;28;20041;-73
2022/05/05 14:28:06;;;;;;;6.63;3.08;;;26.80;44.50;;;;;;4996088;28;20044;-74
2022/05/05 14:30:31;;;;;;;4.10;2.60;;;26.70;44.50;;;;;;5015660;28;20038;-73
2022/05/05 14:32:57;;;;;;;4.88;2.72;;;26.70;44.40;;;;;;5020194;28;20038;-74
2022/05/05 14:35:22;;;;;;;3.65;2.50;;;26.60;44.40;;;;;;5014972;28;20042;-73
2022/05/05 14:37:48;;;;;;;2.80;2.08;;;26.50;44.50;;;;;;4995667;28;20044;-73
2022/05/05 14:40:14;;;;;;;3.08;2.78;;;26.50;44.50;;;;;;5003807;28;20434;-72
2022/05/05 14:42:39;;;;;;;2.78;2.13;;;26.50;44.50;;;;;;5013549;28;20658;-72
2022/05/05 14:45:05;;;;;;;4.68;2.47;;;26.40;44.40;;;;;;5003257;28;20619;-72
2022/05/05 14:47:31;;;;;;;6.22;2.60;;;26.40;44.40;;;;;;5018669;28;20628;-72
2022/05/05 14:49:56;;;;;;;3.15;2.50;;;26.30;44.30;;;;;;4996077;28;20042;-72
2022/05/05 14:52:22;;;;;;;4.45;2.20;;;26.30;44.30;;;;;;5016307;28;20041;-72
2022/05/05 14:54:48;;;;;;;6.38;2.58;;;26.20;44.30;;;;;;4982912;28;20155;-73
2022/05/05 14:57:14;;;;;;;5.47;2.80;;;26.20;44.40;;;;;;5019233;28;20061;-73
2022/05/05 14:59:40;;;;;;;3.08;2.20;;;26.20;44.40;;;;;;5001747;28;20034;-72
2022/05/05 15:02:06;;;;;;;4.53;2.47;;;26.10;44.20;;;;;;5017672;28;20041;-72
2022/05/05 15:04:31;;;;;;;4.13;2.58;;;26.10;44.20;;;;;;5000851;28;20030;-72
2022/05/05 15:06:57;;;;;;;3.35;2.10;;;26.00;44.00;;;;;;5006192;28;20029;-72
2022/05/05 15:09:23;;;;;;;4.63;2.25;;;26.00;44.00;;;;;;5004008;28;20033;-72
2022/05/05 15:11:49;;;;;;;2.67;1.83;;;25.90;44.00;;;;;;5012331;28;20035;-73
2022/05/05 15:14:15;;;;;;;3.40;2.50;;;25.90;44.00;;;;;;5025892;28;20056;-73
2022/05/05 15:16:40;;;;;;;2.92;2.38;;;25.80;43.90;;;;;;5000436;23;20358;-82
2022/05/05 15:19:06;;;;;;;4.57;2.63;;;25.70;43.90;;;;;;4972502;28;20401;-79
2022/05/05 15:21:31;;;;;;;3.22;2.20;;;25.70;43.70;;;;;;4951113;28;21904;-81
2022/05/05 15:23:58;;;;;;;4.70;2.50;;;25.60;43.80;;;;;;4984908;28;20045;-82
2022/05/05 15:26:24;;;;;;;6.63;2.20;;;25.50;43.80;;;;;;4979577;28;20030;-82
2022/05/05 15:28:50;;;;;;;4.22;2.63;;;25.40;43.70;;;;;;4974319;28;20088;-83
2022/05/05 15:31:16;;;;;;;4.60;2.55;;;25.20;43.60;;;;;;4991893;28;20022;-83
2022/05/05 15:33:43;;;;;;;8.65;2.63;;;25.00;43.50;;;;;;4972752;28;20042;-83
2022/05/05 15:36:09;;;;;;;4.05;2.58;;;24.80;43.90;;;;;;4982739;28;20400;-83
2022/05/05 15:38:34;;;;;;;4.20;2.22;;;24.50;44.10;;;;;;4958659;28;20500;-83
2022/05/05 15:41:00;;;;;;;3.45;2.20;;;24.30;44.20;;;;;;4981565;28;20405;-82
2022/05/05 15:43:25;;;;;;;4.55;2.00;;;24.10;44.40;;;;;;5003114;28;20528;-82
2022/05/05 15:45:51;;;;;;;3.45;2.10;;;24.00;44.70;;;;;;4957657;28;20033;-83
2022/05/05 15:48:17;;;;;;;2.83;1.90;;;24.00;45.10;;;;;;4983818;28;20520;-82
2022/05/05 15:50:42;;;;;;;2.90;1.60;;;23.90;45.10;;;;;;4987211;28;20791;-81
2022/05/05 15:53:08;;;;;;;4.57;2.03;;;23.80;44.90;;;;;;4961842;28;20532;-82
2022/05/05 15:55:33;;;;;;;6.07;1.80;;;23.70;44.90;;;;;;4988958;28;20045;-83
2022/05/05 15:57:59;;;;;;;2.20;1.67;;;23.60;45.10;;;;;;4999523;28;20042;-83